^^
Datos históricos de la estación: Murcia-Puente Tocinos
Diario Informe para Septiembre 8, 2019 Unidades:  Ingés    Métrico   Ambas
Diario Semanal Mensual Anual
  Máxima: Mínima: Promedio:
Temperatura: 80.2 °F 69.1 °F 73.2 °F
Punto de rocio: 65.3 °F 61.2 °F 63 °F
Humedad: 83% 54% 71%
Velocidad viento: 9.2mph 0mph 3.9mph
Racha viento: 16.3mph - -
Viento- - ESE
Presión: 30.1 in 30 in -
Precipitación: 0 in    
 
 
Tabla de datos para Septiembre 8, 2019
Hora Temperatura Punto de rocio Presión Viento Velocidad viento Racha viento Humedad Intensidad lluvia(por hora) Nubes
00:04 71.1 °F 63.5 °F 30 in NE 5.2 mph 9.2 mph 77.5% 0 in
00:09 70.9 °F 63.7 °F 30 in NE 5.1 mph 9 mph 78% 0 in
00:14 70.5 °F 63.5 °F 30 in NE 4.7 mph 9 mph 78.3% 0 in
00:19 70.3 °F 63.5 °F 30 in NE 4.8 mph 8.1 mph 79% 0 in
00:24 70.3 °F 63.3 °F 30 in NE 5.2 mph 8 mph 79% 0 in
00:29 70.2 °F 63.7 °F 30 in NE 5.1 mph 8.1 mph 80% 0 in
00:34 70.2 °F 63.7 °F 30 in NE 4.7 mph 8.5 mph 80% 0 in
00:39 70.2 °F 63.7 °F 30 in NE 4.9 mph 9.2 mph 80% 0 in
00:44 70.2 °F 63.7 °F 30 in NE 5.9 mph 10.4 mph 80% 0 in
00:49 70.2 °F 63.7 °F 30 in NE 5.8 mph 10 mph 80% 0 in
00:54 70.2 °F 63.7 °F 30 in NNE 5.4 mph 7 mph 80% 0 in
00:59 70 °F 63.5 °F 30 in NNE 5 mph 6 mph 80% 0 in
01:04 70 °F 63.5 °F 30 in NNE 3.6 mph 6.2 mph 80% 0 in
01:09 69.8 °F 63.3 °F 30 in NE 3.7 mph 6.9 mph 80% 0 in
01:14 69.8 °F 63.3 °F 30 in NNE 4 mph 7 mph 80% 0 in
01:19 69.6 °F 63.5 °F 30 in NE 3.9 mph 6.9 mph 80.8% 0 in
01:24 69.6 °F 63.5 °F 30 in NNE 3.6 mph 7 mph 81% 0 in
01:29 69.6 °F 63.5 °F 30 in NNE 3.5 mph 6 mph 81% 0 in
01:34 69.4 °F 63.5 °F 30 in NE 2.9 mph 5.8 mph 81% 0 in
01:39 69.4 °F 63.3 °F 30 in ENE 2.9 mph 6 mph 81% 0 in
01:44 69.4 °F 63.3 °F 30 in NE 3.1 mph 5.2 mph 81% 0 in
01:49 69.4 °F 63.3 °F 30 in ENE 3.1 mph 5.2 mph 81% 0 in
01:54 69.3 °F 63.3 °F 30 in NNE 3.1 mph 6.2 mph 81.2% 0 in
01:59 69.3 °F 63.5 °F 30 in NNE 3.1 mph 6 mph 81.8% 0 in
02:04 69.3 °F 63.5 °F 30 in NE 3.1 mph 6 mph 82% 0 in
02:09 69.3 °F 63.5 °F 30 in NNE 3.1 mph 6 mph 82% 0 in
02:14 69.3 °F 63.5 °F 30 in NNE 3.1 mph 5 mph 82% 0 in
02:19 69.3 °F 63.5 °F 30 in NNE 3 mph 5 mph 82% 0 in
02:24 69.3 °F 63.3 °F 30 in NNE 2.4 mph 5 mph 81.5% 0 in
02:29 69.3 °F 63.1 °F 30 in NE 2.5 mph 6.2 mph 81% 0 in
02:34 69.3 °F 63.1 °F 30 in NNE 2.9 mph 6 mph 81% 0 in
02:39 69.3 °F 63.3 °F 30 in NNE 2.9 mph 5 mph 81.4% 0 in
02:44 69.3 °F 63.3 °F 30 in NE 2.9 mph 5 mph 81.4% 0 in
02:49 69.4 °F 63.5 °F 30 in NE 2.8 mph 5 mph 81.4% 0 in
02:54 69.4 °F 63.7 °F 30 in NNE 2.4 mph 5 mph 82% 0 in
02:59 69.4 °F 63.5 °F 30 in NE 2.3 mph 4.6 mph 81.4% 0 in
03:04 69.4 °F 63.3 °F 30 in ENE 1.8 mph 5 mph 81% 0 in
03:09 69.4 °F 63.3 °F 30 in ENE 1.9 mph 5 mph 81% 0 in
03:14 69.4 °F 63.5 °F 30 in NE 2.4 mph 4.6 mph 81% 0 in
03:19 69.6 °F 63.5 °F 30 in NNO 2.3 mph 5 mph 81% 0 in
03:24 69.6 °F 63.5 °F 30 in NNO 2 mph 4 mph 81% 0 in
03:29 69.6 °F 63.5 °F 30 in NO 2 mph 3 mph 81% 0 in
03:34 69.6 °F 63.5 °F 30 in NNO 1.8 mph 4.6 mph 81% 0 in
03:39 69.6 °F 63.5 °F 30 in NNO 1.9 mph 5 mph 81% 0 in
03:44 69.6 °F 63.5 °F 30 in NNO 2 mph 5 mph 81% 0 in
03:49 69.6 °F 63.5 °F 30 in NNE 2.1 mph 5 mph 81% 0 in
03:54 69.6 °F 63.5 °F 30 in NNE 2.4 mph 5.4 mph 81% 0 in
03:59 69.4 °F 63.3 °F 30 in NNE 2.5 mph 6 mph 81% 0 in
04:04 69.4 °F 63.3 °F 30 in North 3.1 mph 5 mph 81% 0 in
04:09 69.4 °F 63.3 °F 30 in North 2.9 mph 4.6 mph 81% 0 in
04:14 69.4 °F 63.3 °F 30 in NE 2 mph 5 mph 81% 0 in
04:19 69.4 °F 63.3 °F 30 in NE 2.2 mph 5 mph 81% 0 in
04:24 69.4 °F 63.3 °F 30 in NE 2.9 mph 5.2 mph 81% 0 in
04:29 69.3 °F 63.1 °F 30 in NE 2.9 mph 5 mph 81% 0 in
04:34 69.3 °F 63.3 °F 30 in NE 2.9 mph 5 mph 81.1% 0 in
04:39 69.3 °F 63.5 °F 30 in NE 2.8 mph 4.6 mph 82% 0 in
04:44 69.3 °F 63.5 °F 30 in NE 2.4 mph 5 mph 82% 0 in
04:49 69.3 °F 63.5 °F 30 in NE 2.4 mph 5 mph 82% 0 in
04:54 69.4 °F 63.7 °F 30 in NE 2.4 mph 3.5 mph 82% 0 in
04:59 69.4 °F 63.7 °F 30 in NE 2.3 mph 3.5 mph 82% 0 in
05:04 69.4 °F 63.7 °F 30 in NE 1.8 mph 3 mph 82% 0 in
05:09 69.6 °F 63.9 °F 30 in NE 1.8 mph 3 mph 82% 0 in
05:14 69.6 °F 63.9 °F 30 in NE 1.8 mph 2.4 mph 82% 0 in
05:19 69.6 °F 63.9 °F 30 in NE 1.5 mph 2.3 mph 82% 0 in
05:24 69.6 °F 63.9 °F 30 in Calm   2.3 mph 82% 0 in
05:29 69.6 °F 63.7 °F 30 in NE 0.3 mph 3.6 mph 81.6% 0 in
05:34 69.6 °F 63.5 °F 30 in NE 1.8 mph 4.6 mph 81% 0 in
05:39 69.6 °F 63.5 °F 30 in NE 1.9 mph 5 mph 81% 0 in
05:44 69.4 °F 63.5 °F 30 in NE 2.4 mph 5 mph 81.5% 0 in
05:49 69.4 °F 63.7 °F 30 in NE 2.3 mph 4.6 mph 82% 0 in
05:54 69.4 °F 63.7 °F 30 in ENE 1.8 mph 5 mph 81.8% 0 in
05:59 69.4 °F 63.7 °F 30 in ENE 1.9 mph 4.6 mph 82% 0 in
06:04 69.4 °F 63.7 °F 30 in ENE 2.4 mph 5 mph 82% 0 in
06:09 69.4 °F 63.7 °F 30 in NE 2.3 mph 5 mph 82% 0 in
06:14 69.4 °F 63.7 °F 30 in NE 2 mph 3.5 mph 82% 0 in
06:19 69.4 °F 63.7 °F 30 in NE 1.9 mph 3 mph 82% 0 in
06:24 69.4 °F 63.5 °F 30 in NE 1.4 mph 3.5 mph 81.6% 0 in
06:29 69.4 °F 63.3 °F 30 in NNE 1.4 mph 3.6 mph 81% 0 in
06:34 69.4 °F 63.5 °F 30 in NNE 1.4 mph 4 mph 81% 0 in
06:39 69.6 °F 63.5 °F 30 in NNE 1.2 mph 2.4 mph 81% 0 in
06:44 69.6 °F 63.5 °F 30 in Calm   2.4 mph 80.8% 0 in
06:49 69.6 °F 63.1 °F 30.1 in NNE 0.2 mph 3.6 mph 80% 0 in
06:54 69.6 °F 63.1 °F 30.1 in NE 1.4 mph 4.6 mph 80% 0 in
06:59 69.6 °F 63.1 °F 30.1 in NE 1.7 mph 5 mph 80% 0 in
07:04 69.6 °F 63.1 °F 30.1 in NE 2.9 mph 5 mph 80% 0 in
07:09 69.4 °F 63 °F 30.1 in NE 2.8 mph 5 mph 80% 0 in
07:14 69.4 °F 63 °F 30.1 in NE 2.4 mph 4.6 mph 80% 0 in
07:19 69.4 °F 63 °F 30.1 in NE 2.3 mph 5 mph 80% 0 in
07:24 69.4 °F 63 °F 30.1 in NE 2 mph 4.6 mph 80% 0 in
07:29 69.4 °F 63.1 °F 30.1 in NE 2 mph 5 mph 80.2% 0 in
07:34 69.4 °F 63.3 °F 30.1 in NE 2 mph 5.2 mph 81% 0 in
07:39 69.4 °F 63.3 °F 30.1 in NE 2.2 mph 5 mph 81% 0 in
07:44 69.4 °F 63.3 °F 30.1 in NE 3.1 mph 5 mph 81% 0 in
07:49 69.3 °F 63.3 °F 30.1 in NE 2.9 mph 4 mph 81.1% 0 in
07:54 69.3 °F 63.5 °F 30.1 in NE 2 mph 3.5 mph 82% 0 in
07:59 69.3 °F 63.5 °F 30.1 in NE 1.9 mph 3 mph 82% 0 in
08:04 69.3 °F 63.5 °F 30.1 in NE 1.4 mph 2.9 mph 82% 0 in
08:09 69.3 °F 63.5 °F 30.1 in NE 1.5 mph 3.5 mph 82% 0 in
08:14 69.3 °F 63.5 °F 30.1 in NE 1.8 mph 3.5 mph 82% 0 in
08:19 69.1 °F 63.3 °F 30.1 in NE 1.9 mph 4 mph 82% 0 in
08:24 69.1 °F 63.3 °F 30.1 in NE 2 mph 5 mph 82% 0 in
08:29 69.1 °F 63.7 °F 30.1 in NE 2.1 mph 5 mph 82.7% 0 in
08:34 69.1 °F 63.7 °F 30.1 in NE 2.4 mph 5 mph 83% 0 in
08:39 69.1 °F 63.7 °F 30.1 in NE 2.3 mph 5 mph 83% 0 in
08:44 69.1 °F 63.5 °F 30.1 in NE 2 mph 4 mph 82.4% 0 in
08:49 69.3 °F 63.5 °F 30.1 in NE 1.9 mph 4 mph 82% 0 in
08:54 69.4 °F 63.7 °F 30.1 in NE 1.4 mph 3.6 mph 81.8% 0 in
08:59 69.8 °F 63.7 °F 30.1 in ENE 1.5 mph 4.6 mph 81% 0 in
09:04 70.2 °F 63.7 °F 30.1 in ENE 1.8 mph 5 mph 80.1% 0 in
09:09 70.3 °F 63.7 °F 30.1 in ENE 1.8 mph 4 mph 79.8% 0 in
09:14 70.3 °F 63.5 °F 30.1 in ENE 1.8 mph 3 mph 79.1% 0 in
09:19 70.5 °F 63.9 °F 30.1 in ENE 1.5 mph 2.4 mph 79.5% 0 in
09:24 71.1 °F 63.9 °F 30.1 in Calm   3.5 mph 78.1% 0 in
09:29 71.1 °F 63.9 °F 30.1 in NNE 0.2 mph 3.6 mph 78% 0 in
09:34 71.1 °F 63.9 °F 30.1 in North 1.4 mph 4 mph 78% 0 in
09:39 71.1 °F 63.9 °F 30.1 in NO 1.5 mph 4.6 mph 78% 0 in
09:44 71.1 °F 63.9 °F 30.1 in NO 2 mph 5 mph 78% 0 in
09:49 70.9 °F 63.7 °F 30.1 in NO 2 mph 5 mph 78% 0 in
09:54 71.1 °F 63.9 °F 30.1 in NO 1.8 mph 3 mph 78% 0 in
09:59 71.2 °F 64 °F 30.1 in NO 1.4 mph 2.3 mph 78% 0 in
10:04 71.8 °F 64.2 °F 30.1 in Calm   3.1 mph 77% 0 in
10:09 72.3 °F 64.4 °F 30.1 in Este 0.2 mph 3.5 mph 76.3% 0 in
10:14 73 °F 64.6 °F 30.1 in Este 1.4 mph 3 mph 74.9% 0 in
10:19 73.6 °F 64.6 °F 30.1 in NE 1.5 mph 4.6 mph 73.6% 0 in
10:24 73.9 °F 64.6 °F 30.1 in NNO 1.8 mph 5 mph 72.8% 0 in
10:29 73.9 °F 64.6 °F 30.1 in NNE 2 mph 5 mph 72.5% 0 in
10:34 74.1 °F 64.6 °F 30.1 in NNE 2.9 mph 5.4 mph 72% 0 in
10:39 74.3 °F 64.6 °F 30.1 in NE 2.9 mph 6 mph 72% 0 in
10:44 74.1 °F 64.6 °F 30.1 in NNE 3.1 mph 7.6 mph 72.2% 0 in
10:49 74.1 °F 64.8 °F 30.1 in NE 3.2 mph 8.1 mph 72.8% 0 in
10:54 74.1 °F 64.9 °F 30.1 in NE 3.6 mph 6.9 mph 73.2% 0 in
10:59 73.9 °F 64.9 °F 30.1 in NE 3.7 mph 7 mph 73.8% 0 in
11:04 74.1 °F 65.1 °F 30.1 in NE 4 mph 7 mph 73.4% 0 in
11:09 74.3 °F 65.1 °F 30.1 in NE 4 mph 7 mph 73% 0 in
11:14 74.7 °F 65.3 °F 30.1 in NE 4 mph 7 mph 72.7% 0 in
11:19 75 °F 65.1 °F 30.1 in ENE 3.9 mph 7 mph 71.6% 0 in
11:24 75.4 °F 65.1 °F 30.1 in ENE 3.1 mph 6 mph 70.7% 0 in
11:29 75.7 °F 65.3 °F 30.1 in NE 2.9 mph 5.2 mph 69.9% 0 in
11:34 76.5 °F 64.9 °F 30.1 in ENE 1.8 mph 6.2 mph 67.6% 0 in
11:39 76.5 °F 64.4 °F 30.1 in SSE 2.1 mph 6 mph 66.1% 0 in
11:44 76.5 °F 64.4 °F 30.1 in SO 3.1 mph 5.9 mph 66% 0 in
11:49 76.5 °F 64.2 °F 30.1 in SO 3.1 mph 6 mph 66% 0 in
11:54 75.9 °F 63.9 °F 30.1 in SO 3.1 mph 6.2 mph 66.2% 0 in
11:59 76.1 °F 64.2 °F 30.1 in Oeste 3.2 mph 7.4 mph 66.8% 0 in
12:04 76.5 °F 63.9 °F 30.1 in OSO 3.6 mph 7 mph 65.3% 0 in
12:09 76.6 °F 63.7 °F 30.1 in Oeste 3.5 mph 7 mph 64.5% 0 in
12:14 76.5 °F 63.3 °F 30.1 in ONO 2.9 mph 6.9 mph 64% 0 in
12:19 76.5 °F 63.3 °F 30.1 in NO 3 mph 7 mph 64% 0 in
12:24 76.5 °F 63.3 °F 30.1 in NO 3.6 mph 5.2 mph 64% 0 in
12:29 76.5 °F 63.3 °F 30.1 in NNO 3.5 mph 5 mph 64% 0 in
12:34 76.5 °F 63.3 °F 30.1 in North 2.9 mph 5 mph 64% 0 in
12:39 76.6 °F 63.5 °F 30.1 in NO 2.7 mph 5.2 mph 64% 0 in
12:44 76.6 °F 63.1 °F 30.1 in ONO 2 mph 5.2 mph 63% 0 in
12:49 76.8 °F 63.3 °F 30.1 in ONO 2 mph 5.2 mph 62.9% 0 in
12:54 77.2 °F 63.1 °F 30.1 in Este 1.8 mph 5.8 mph 61.9% 0 in
12:59 77.4 °F 63 °F 30.1 in SE 1.9 mph 6 mph 61% 0 in
13:04 77.4 °F 63.1 °F 30.1 in NE 2.4 mph 8.5 mph 61.7% 0 in
13:09 77.2 °F 63.1 °F 30.1 in ENE 2.7 mph 9 mph 62% 0 in
13:14 77.2 °F 63.3 °F 30.1 in NE 4 mph 7 mph 62.5% 0 in
13:19 77.4 °F 63.3 °F 30.1 in ENE 3.7 mph 8.1 mph 61.9% 0 in
13:24 77.9 °F 63.3 °F 30.1 in ENE 2.4 mph 9.7 mph 60.7% 0 in
13:29 78.3 °F 63 °F 30.1 in NE 3 mph 10 mph 59.5% 0 in
13:34 78.1 °F 62.8 °F 30.1 in NE 5.2 mph 10.7 mph 59.5% 0 in
13:39 78.1 °F 62.8 °F 30.1 in NE 5.3 mph 11 mph 59.3% 0 in
13:44 78.3 °F 62.8 °F 30.1 in NE 5.9 mph 11.8 mph 59% 0 in
13:49 78.4 °F 62.6 °F 30.1 in NE 5.8 mph 12 mph 58.6% 0 in
13:54 78.6 °F 62.4 °F 30.1 in ENE 5.4 mph 10.7 mph 57.9% 0 in
13:59 78.6 °F 62.4 °F 30.1 in Este 5.3 mph 11 mph 57.4% 0 in
14:04 78.4 °F 62.4 °F 30.1 in Este 4.7 mph 9.7 mph 58% 0 in
14:09 78.4 °F 63 °F 30.1 in ESE 4.8 mph 10 mph 59.1% 0 in
14:14 78.4 °F 63 °F 30.1 in ESE 5.2 mph 11.8 mph 59% 0 in
14:19 78.4 °F 63 °F 30.1 in SE 5.4 mph 12 mph 59% 0 in
14:24 78.4 °F 63 °F 30 in ESE 6.4 mph 14 mph 59% 0 in
14:29 78.4 °F 62.6 °F 30 in ESE 6.6 mph 14 mph 58.4% 0 in
14:34 78.3 °F 62.6 °F 30 in ESE 7.4 mph 14 mph 58.6% 0 in
14:39 78.3 °F 62.2 °F 30 in ESE 7.4 mph 14 mph 58.2% 0 in
14:44 78.3 °F 62.2 °F 30 in ESE 7.4 mph 14 mph 58.1% 0 in
14:49 78.3 °F 62.8 °F 30 in SE 7.2 mph 12 mph 58.9% 0 in
14:54 78.3 °F 63.1 °F 30 in SE 6.4 mph 12 mph 59.8% 0 in
14:59 78.4 °F 63.1 °F 30 in SE 6.2 mph 11.5 mph 59.5% 0 in
15:04 78.6 °F 62.8 °F 30 in SE 5.4 mph 13.5 mph 58.5% 0 in
15:09 78.6 °F 62.6 °F 30 in SSE 5.7 mph 14 mph 58% 0 in
15:14 78.6 °F 62.6 °F 30 in SE 6.9 mph 14 mph 57.7% 0 in
15:19 79 °F 62.2 °F 30 in SE 6.7 mph 12.3 mph 56.7% 0 in
15:24 79.3 °F 62.6 °F 30 in SSE 5.9 mph 15 mph 56.7% 0 in
15:29 79.3 °F 62.8 °F 30 in SE 6.3 mph 16.3 mph 57% 0 in
15:34 79.7 °F 62.8 °F 30 in SSE 8.1 mph 16.1 mph 56.3% 0 in
15:39 79.9 °F 63 °F 30 in SE 8 mph 16 mph 56.6% 0 in
15:44 79.7 °F 62.4 °F 30 in SE 7.6 mph 16.1 mph 55.8% 0 in
15:49 79.3 °F 62.4 °F 30 in SSE 7.7 mph 16 mph 56.3% 0 in
15:54 79.5 °F 62.4 °F 30 in SE 8.1 mph 15 mph 56.2% 0 in
15:59 79.5 °F 62.4 °F 30 in SSE 8.2 mph 15.2 mph 56% 0 in
16:04 79.7 °F 62.8 °F 30 in SE 8.5 mph 15 mph 56.1% 0 in
16:09 79.9 °F 62.8 °F 30 in SE 8.5 mph 13.8 mph 56% 0 in
16:14 80.2 °F 63 °F 30 in SSE 8.5 mph 14 mph 55.8% 0 in
16:19 80.2 °F 62.8 °F 30 in SSE 8.3 mph 14 mph 55.3% 0 in
16:24 80.2 °F 62.6 °F 30 in SSE 7.4 mph 13.8 mph 55% 0 in
16:29 80.2 °F 62.4 °F 30 in SSE 7.4 mph 14 mph 54.8% 0 in
16:34 80.1 °F 62.2 °F 30 in ESE 7.4 mph 13 mph 54.7% 0 in
16:39 79.9 °F 62.2 °F 30 in SE 7.4 mph 12.7 mph 54.9% 0 in
16:44 79.9 °F 62.2 °F 30 in ESE 7.4 mph 13 mph 54.9% 0 in
16:49 80.1 °F 62.2 °F 30 in SSE 7.3 mph 12 mph 54.4% 0 in
16:54 80.2 °F 62.1 °F 30 in SSE 6.4 mph 12 mph 54% 0 in
16:59 80.1 °F 62.1 °F 30 in ESE 6.5 mph 11.5 mph 54.2% 0 in
17:04 79.9 °F 61.9 °F 30 in ESE 6.9 mph 12.7 mph 54.3% 0 in
17:09 79.5 °F 62.1 °F 30 in SE 7.1 mph 15.2 mph 54.9% 0 in
17:14 79.3 °F 61.9 °F 30 in ESE 8.5 mph 15 mph 55% 0 in
17:19 79.3 °F 61.9 °F 30 in SE 8.6 mph 15 mph 55.2% 0 in
17:24 79.3 °F 61.9 °F 30 in SE 9.2 mph 13 mph 55.2% 0 in
17:29 79.3 °F 62.1 °F 30 in ESE 9.1 mph 13 mph 55.6% 0 in
17:34 79.3 °F 62.2 °F 30 in SE 8.5 mph 14.7 mph 55.7% 0 in
17:39 79.2 °F 62.1 °F 30 in SE 8.5 mph 15.2 mph 56% 0 in
17:44 79 °F 62.1 °F 30 in ESE 8.5 mph 15 mph 56% 0 in
17:49 79 °F 62.1 °F 30 in ESE 8.5 mph 15.6 mph 56.3% 0 in
17:54 78.6 °F 62.1 °F 30 in ESE 8.5 mph 16.1 mph 56.9% 0 in
17:59 78.4 °F 62.1 °F 30 in SE 8.5 mph 16 mph 57.3% 0 in
18:04 78.6 °F 62.1 °F 30 in ESE 8.7 mph 12.3 mph 57% 0 in
18:09 78.4 °F 62.1 °F 30 in SE 8.5 mph 15 mph 57% 0 in
18:14 78.4 °F 62.1 °F 30 in SE 7.4 mph 15 mph 57.1% 0 in
18:19 78.3 °F 62.2 °F 30 in SE 7.5 mph 14 mph 57.7% 0 in
18:24 78.3 °F 62.1 °F 30 in SE 8.1 mph 14 mph 57.6% 0 in
18:29 78.3 °F 62.1 °F 30 in SE 8 mph 14 mph 57.6% 0 in
18:34 78.1 °F 62.1 °F 30 in SE 7.4 mph 14 mph 58% 0 in
18:39 77.9 °F 61.9 °F 30 in SE 7.5 mph 13 mph 58% 0 in
18:44 77.7 °F 61.9 °F 30 in SE 8.1 mph 13 mph 58.3% 0 in
18:49 77.5 °F 62.1 °F 30 in ESE 8 mph 12 mph 59% 0 in
18:54 77.4 °F 61.9 °F 30 in SE 7.4 mph 15.2 mph 59% 0 in
18:59 77 °F 61.7 °F 30 in SE 7.6 mph 15 mph 59.3% 0 in
19:04 76.8 °F 61.9 °F 30 in SE 8.5 mph 14 mph 60% 0 in
19:09 76.6 °F 61.7 °F 30 in SE 8.2 mph 15 mph 60% 0 in
19:14 76.5 °F 61.9 °F 30 in SE 6.9 mph 15 mph 60.8% 0 in
19:19 76.3 °F 61.7 °F 30 in ESE 6.9 mph 13 mph 61% 0 in
19:24 75.9 °F 61.9 °F 30 in SE 6.9 mph 10.4 mph 61.8% 0 in
19:29 75.7 °F 61.7 °F 30 in SE 6.8 mph 10.7 mph 62% 0 in
19:34 75.4 °F 61.5 °F 30 in SE 6.4 mph 11.5 mph 62.2% 0 in
19:39 75 °F 61.7 °F 30 in SE 6.7 mph 13 mph 63% 0 in
19:44 75 °F 61.5 °F 30 in SE 8.1 mph 13 mph 63% 0 in
19:49 74.8 °F 61.5 °F 30 in SE 7.7 mph 12 mph 63% 0 in
19:54 74.8 °F 61.3 °F 30 in SE 5.9 mph 10 mph 63% 0 in
19:59 74.7 °F 61.3 °F 30 in SE 5.9 mph 10 mph 63.2% 0 in
20:04 74.5 °F 61.5 °F 30 in SE 5.9 mph 9 mph 64% 0 in
20:09 74.3 °F 61.3 °F 30 in SE 5.7 mph 8.1 mph 64% 0 in
20:14 74.3 °F 61.3 °F 30 in SE 4.7 mph 8.1 mph 64.2% 0 in
20:19 74.1 °F 61.5 °F 30 in ESE 4.7 mph 8 mph 64.8% 0 in
20:24 73.9 °F 61.5 °F 30 in SE 4.7 mph 9.2 mph 65% 0 in
20:29 73.8 °F 61.3 °F 30 in ESE 4.9 mph 9.2 mph 65.3% 0 in
20:34 73.6 °F 61.5 °F 30 in SE 5.9 mph 9.2 mph 66% 0 in
20:39 73.4 °F 61.3 °F 30 in ESE 5.7 mph 9 mph 66% 0 in
20:44 73.2 °F 61.3 °F 30 in ESE 4.7 mph 8.1 mph 66.1% 0 in
20:49 73 °F 61.5 °F 30 in ESE 4.8 mph 8.5 mph 67% 0 in
20:54 72.9 °F 61.3 °F 30 in SE 5.2 mph 9 mph 67% 0 in
20:59 72.9 °F 61.3 °F 30 in SE 5 mph 6 mph 67% 0 in
21:04 72.9 °F 61.3 °F 30 in SE 4 mph 6.2 mph 67.3% 0 in
21:09 72.7 °F 61.5 °F 30 in SE 3.9 mph 6.2 mph 68% 0 in
21:14 72.3 °F 61.2 °F 30 in ESE 3.6 mph 6 mph 68% 0 in
21:19 72.3 °F 61.2 °F 30 in ESE 3.5 mph 6 mph 68% 0 in
21:24 72.3 °F 61.2 °F 30 in ESE 3.1 mph 6.9 mph 68% 0 in
21:29 72.3 °F 61.2 °F 30 in Este 3 mph 7 mph 68% 0 in
21:34 72.1 °F 61.2 °F 30 in Este 2.4 mph 4.6 mph 68.1% 0 in
21:39 72.1 °F 61.3 °F 30 in NE 2.4 mph 5 mph 69% 0 in
21:44 72 °F 61.2 °F 30 in NE 2.4 mph 5 mph 69% 0 in
21:49 72 °F 61.2 °F 30 in NE 2.4 mph 5 mph 69% 0 in
21:54 72 °F 61.2 °F 30 in NNE 2.4 mph 4 mph 69% 0 in
21:59 72 °F 61.2 °F 30 in NE 2.2 mph 4.6 mph 69.1% 0 in
22:04 72 °F 61.2 °F 30 in ENE 1.8 mph 5 mph 69% 0 in
22:09 72 °F 61.2 °F 30 in ENE 1.8 mph 3.6 mph 69% 0 in
22:14 71.8 °F 61.2 °F 30 in ESE 1.8 mph 4.6 mph 69% 0 in
22:19 71.8 °F 61.2 °F 30 in ESE 2 mph 5 mph 69.3% 0 in
22:24 71.8 °F 61.5 °F 30 in ESE 2.9 mph 5 mph 70% 0 in
22:29 71.6 °F 61.3 °F 30 in SE 2.9 mph 5.8 mph 70% 0 in
22:34 71.4 °F 61.2 °F 30 in ESE 2.9 mph 6 mph 70% 0 in
22:39 71.4 °F 61.3 °F 30 in ESE 2.8 mph 5 mph 70.5% 0 in
22:44 71.4 °F 61.5 °F 30 in ESE 2.4 mph 5 mph 71% 0 in
22:49 71.4 °F 61.5 °F 30 in ESE 2.3 mph 3 mph 71% 0 in
22:54 71.2 °F 61.3 °F 30 in ESE 1.8 mph 2.3 mph 71% 0 in
22:59 71.2 °F 61.3 °F 30 in ESE 1.4 mph 3.1 mph 71% 0 in
23:04 71.1 °F 61.3 °F 30 in Calm   3.5 mph 71.5% 0 in
23:09 71.1 °F 61.5 °F 30 in ESE 0.2 mph 3 mph 72% 0 in
23:14 71.1 °F 61.5 °F 30 in ESE 1.4 mph 2.3 mph 72% 0 in
23:19 70.9 °F 61.3 °F 30 in ESE 1.1 mph 2.4 mph 72% 0 in
23:24 70.9 °F 61.5 °F 30 in Calm   3.6 mph 72.5% 0 in
23:29 70.7 °F 61.7 °F 30 in ESE 0.3 mph 4 mph 73% 0 in
23:34 70.5 °F 61.3 °F 30 in ESE 1.8 mph 3 mph 73% 0 in
23:39 70.5 °F 61.5 °F 30 in ESE 1.5 mph 3.5 mph 73.4% 0 in
23:44 70.3 °F 61.5 °F 30 in Calm   3.5 mph 73.4% 0 in
23:49 70.3 °F 61.7 °F 30 in ESE 0.3 mph 3.5 mph 74% 0 in
23:54 70.2 °F 61.5 °F 30 in ESE 2 mph 4.6 mph 74% 0 in
23:59 70 °F 61.3 °F 30 in NO 2.1 mph 5 mph 74.2% 0 in
Murcia-Puente Tocinos, España
Compliments of Weather Underground - 3 mb

La estación de MeteoMurcia.com, publica sus datos en los siguientes proyectos:

Weather Underground PWS IMURCIAP2 Meteoclimatic www.awekas.at

W3Counter
Web Analytics